sensor_id;sensor_type;location;lat;lon;timestamp;P1;durP1;ratioP1;P2;durP2;ratioP2
55003;SDS011;40900;52.710;6.438;2022-11-14T00:00:39;67.35;;;40.22;;
55003;SDS011;40900;52.710;6.438;2022-11-14T00:03:06;62.40;;;37.40;;
55003;SDS011;40900;52.710;6.438;2022-11-14T00:05:37;63.78;;;36.90;;
55003;SDS011;40900;52.710;6.438;2022-11-14T00:08:04;65.30;;;37.63;;
55003;SDS011;40900;52.710;6.438;2022-11-14T00:10:30;66.13;;;38.17;;
55003;SDS011;40900;52.710;6.438;2022-11-14T00:12:55;66.25;;;39.00;;
55003;SDS011;40900;52.710;6.438;2022-11-14T00:15:21;68.05;;;37.40;;
55003;SDS011;40900;52.710;6.438;2022-11-14T00:17:47;66.25;;;37.08;;
55003;SDS011;40900;52.710;6.438;2022-11-14T00:20:13;66.53;;;38.33;;
55003;SDS011;40900;52.710;6.438;2022-11-14T00:22:38;64.82;;;36.13;;
55003;SDS011;40900;52.710;6.438;2022-11-14T00:25:04;63.25;;;36.88;;
55003;SDS011;40900;52.710;6.438;2022-11-14T00:27:30;66.28;;;37.88;;
55003;SDS011;40900;52.710;6.438;2022-11-14T00:29:56;67.32;;;39.15;;
55003;SDS011;40900;52.710;6.438;2022-11-14T00:32:21;62.50;;;37.13;;
55003;SDS011;40900;52.710;6.438;2022-11-14T00:34:47;67.07;;;37.35;;
55003;SDS011;40900;52.710;6.438;2022-11-14T00:37:13;68.75;;;37.53;;
55003;SDS011;40900;52.710;6.438;2022-11-14T00:39:39;65.75;;;38.50;;
55003;SDS011;40900;52.710;6.438;2022-11-14T00:42:04;69.25;;;41.20;;
55003;SDS011;40900;52.710;6.438;2022-11-14T00:44:30;68.18;;;39.28;;
55003;SDS011;40900;52.710;6.438;2022-11-14T00:46:56;69.93;;;39.90;;
55003;SDS011;40900;52.710;6.438;2022-11-14T00:49:22;68.28;;;41.20;;
55003;SDS011;40900;52.710;6.438;2022-11-14T00:51:47;70.03;;;40.55;;
55003;SDS011;40900;52.710;6.438;2022-11-14T00:54:13;67.70;;;40.88;;
55003;SDS011;40900;52.710;6.438;2022-11-14T00:56:39;72.72;;;42.50;;
55003;SDS011;40900;52.710;6.438;2022-11-14T00:59:04;70.03;;;40.55;;
55003;SDS011;40900;52.710;6.438;2022-11-14T01:01:30;71.55;;;40.72;;
55003;SDS011;40900;52.710;6.438;2022-11-14T01:03:56;70.05;;;41.20;;
55003;SDS011;40900;52.710;6.438;2022-11-14T01:06:21;70.43;;;43.55;;
55003;SDS011;40900;52.710;6.438;2022-11-14T01:08:48;73.82;;;44.95;;
55003;SDS011;40900;52.710;6.438;2022-11-14T01:11:16;72.35;;;43.15;;
55003;SDS011;40900;52.710;6.438;2022-11-14T01:13:45;74.80;;;43.90;;
55003;SDS011;40900;52.710;6.438;2022-11-14T01:16:11;70.57;;;42.67;;
55003;SDS011;40900;52.710;6.438;2022-11-14T01:18:37;73.18;;;43.95;;
55003;SDS011;40900;52.710;6.438;2022-11-14T01:21:04;75.85;;;45.30;;
55003;SDS011;40900;52.710;6.438;2022-11-14T01:23:34;76.43;;;45.17;;
55003;SDS011;40900;52.710;6.438;2022-11-14T01:26:03;72.28;;;43.67;;
55003;SDS011;40900;52.710;6.438;2022-11-14T01:28:30;76.32;;;44.38;;
55003;SDS011;40900;52.710;6.438;2022-11-14T01:30:56;80.85;;;46.25;;
55003;SDS011;40900;52.710;6.438;2022-11-14T01:33:32;83.70;;;46.47;;
55003;SDS011;40900;52.710;6.438;2022-11-14T01:36:00;74.20;;;44.47;;
55003;SDS011;40900;52.710;6.438;2022-11-14T01:38:26;78.72;;;45.97;;
55003;SDS011;40900;52.710;6.438;2022-11-14T01:40:52;79.20;;;46.40;;
55003;SDS011;40900;52.710;6.438;2022-11-14T01:45:54;73.75;;;45.50;;
55003;SDS011;40900;52.710;6.438;2022-11-14T01:54:02;75.10;;;46.47;;
55003;SDS011;40900;52.710;6.438;2022-11-14T01:56:38;76.88;;;48.08;;
55003;SDS011;40900;52.710;6.438;2022-11-14T01:59:11;83.00;;;49.67;;
55003;SDS011;40900;52.710;6.438;2022-11-14T02:01:43;82.30;;;48.78;;
55003;SDS011;40900;52.710;6.438;2022-11-14T02:04:12;81.68;;;48.38;;
55003;SDS011;40900;52.710;6.438;2022-11-14T02:06:53;82.80;;;49.92;;
55003;SDS011;40900;52.710;6.438;2022-11-14T02:09:21;83.47;;;50.17;;
55003;SDS011;40900;52.710;6.438;2022-11-14T02:11:47;85.25;;;49.50;;
55003;SDS011;40900;52.710;6.438;2022-11-14T02:14:14;82.10;;;49.10;;
55003;SDS011;40900;52.710;6.438;2022-11-14T02:16:40;84.25;;;50.63;;
55003;SDS011;40900;52.710;6.438;2022-11-14T02:19:07;84.03;;;49.35;;
55003;SDS011;40900;52.710;6.438;2022-11-14T02:21:33;87.15;;;51.22;;
55003;SDS011;40900;52.710;6.438;2022-11-14T02:23:59;83.97;;;51.90;;
55003;SDS011;40900;52.710;6.438;2022-11-14T02:26:25;84.28;;;51.72;;
55003;SDS011;40900;52.710;6.438;2022-11-14T02:28:51;85.40;;;50.25;;
55003;SDS011;40900;52.710;6.438;2022-11-14T02:31:17;83.45;;;51.22;;
55003;SDS011;40900;52.710;6.438;2022-11-14T02:33:43;85.65;;;51.58;;
55003;SDS011;40900;52.710;6.438;2022-11-14T02:36:08;83.88;;;48.85;;
55003;SDS011;40900;52.710;6.438;2022-11-14T02:38:34;85.03;;;49.85;;
55003;SDS011;40900;52.710;6.438;2022-11-14T02:41:01;86.50;;;51.78;;
55003;SDS011;40900;52.710;6.438;2022-11-14T02:43:26;91.20;;;51.67;;
55003;SDS011;40900;52.710;6.438;2022-11-14T02:45:52;86.80;;;50.30;;
55003;SDS011;40900;52.710;6.438;2022-11-14T02:48:18;88.60;;;51.90;;
55003;SDS011;40900;52.710;6.438;2022-11-14T02:50:46;89.30;;;50.75;;
55003;SDS011;40900;52.710;6.438;2022-11-14T02:53:12;91.13;;;51.47;;
55003;SDS011;40900;52.710;6.438;2022-11-14T02:55:38;89.40;;;51.60;;
55003;SDS011;40900;52.710;6.438;2022-11-14T02:58:03;88.80;;;53.72;;
55003;SDS011;40900;52.710;6.438;2022-11-14T03:00:29;84.05;;;50.53;;
55003;SDS011;40900;52.710;6.438;2022-11-14T03:02:55;89.85;;;51.88;;
55003;SDS011;40900;52.710;6.438;2022-11-14T03:05:20;90.70;;;53.17;;
55003;SDS011;40900;52.710;6.438;2022-11-14T03:07:46;85.72;;;50.35;;
55003;SDS011;40900;52.710;6.438;2022-11-14T03:10:12;92.03;;;53.58;;
55003;SDS011;40900;52.710;6.438;2022-11-14T03:12:38;91.55;;;54.20;;
55003;SDS011;40900;52.710;6.438;2022-11-14T03:15:04;91.72;;;53.65;;
55003;SDS011;40900;52.710;6.438;2022-11-14T03:17:31;93.22;;;52.80;;
55003;SDS011;40900;52.710;6.438;2022-11-14T03:19:58;91.32;;;52.90;;
55003;SDS011;40900;52.710;6.438;2022-11-14T03:22:24;84.63;;;50.90;;
55003;SDS011;40900;52.710;6.438;2022-11-14T03:24:51;91.03;;;53.00;;
55003;SDS011;40900;52.710;6.438;2022-11-14T03:27:16;88.38;;;53.38;;
55003;SDS011;40900;52.710;6.438;2022-11-14T03:29:42;92.40;;;53.90;;
55003;SDS011;40900;52.710;6.438;2022-11-14T03:32:08;94.05;;;54.65;;
55003;SDS011;40900;52.710;6.438;2022-11-14T03:34:34;92.32;;;53.15;;
55003;SDS011;40900;52.710;6.438;2022-11-14T03:36:59;93.82;;;53.17;;
55003;SDS011;40900;52.710;6.438;2022-11-14T03:39:25;91.78;;;53.40;;
55003;SDS011;40900;52.710;6.438;2022-11-14T03:41:51;87.22;;;51.97;;
55003;SDS011;40900;52.710;6.438;2022-11-14T03:44:17;91.45;;;52.78;;
55003;SDS011;40900;52.710;6.438;2022-11-14T03:46:43;89.47;;;55.05;;
55003;SDS011;40900;52.710;6.438;2022-11-14T03:49:08;91.30;;;53.17;;
55003;SDS011;40900;52.710;6.438;2022-11-14T03:51:34;98.57;;;56.53;;
55003;SDS011;40900;52.710;6.438;2022-11-14T03:54:00;99.82;;;55.33;;
55003;SDS011;40900;52.710;6.438;2022-11-14T03:56:26;103.75;;;57.80;;
55003;SDS011;40900;52.710;6.438;2022-11-14T03:58:51;96.85;;;54.55;;
55003;SDS011;40900;52.710;6.438;2022-11-14T04:01:17;100.28;;;56.08;;
55003;SDS011;40900;52.710;6.438;2022-11-14T04:03:43;104.13;;;57.80;;
55003;SDS011;40900;52.710;6.438;2022-11-14T04:06:08;96.10;;;55.08;;
55003;SDS011;40900;52.710;6.438;2022-11-14T04:08:34;97.32;;;55.40;;
55003;SDS011;40900;52.710;6.438;2022-11-14T04:11:00;96.00;;;54.45;;
55003;SDS011;40900;52.710;6.438;2022-11-14T04:13:25;94.60;;;56.90;;
55003;SDS011;40900;52.710;6.438;2022-11-14T04:15:55;99.30;;;56.45;;
55003;SDS011;40900;52.710;6.438;2022-11-14T04:18:22;95.93;;;55.78;;
55003;SDS011;40900;52.710;6.438;2022-11-14T04:20:48;94.07;;;53.65;;
55003;SDS011;40900;52.710;6.438;2022-11-14T04:23:14;93.28;;;55.40;;
55003;SDS011;40900;52.710;6.438;2022-11-14T04:25:41;97.35;;;54.95;;
55003;SDS011;40900;52.710;6.438;2022-11-14T04:28:08;96.70;;;55.30;;
55003;SDS011;40900;52.710;6.438;2022-11-14T04:30:33;92.07;;;53.17;;
55003;SDS011;40900;52.710;6.438;2022-11-14T04:32:59;95.97;;;54.08;;
55003;SDS011;40900;52.710;6.438;2022-11-14T04:35:24;93.47;;;52.63;;
55003;SDS011;40900;52.710;6.438;2022-11-14T04:37:50;97.68;;;54.22;;
55003;SDS011;40900;52.710;6.438;2022-11-14T04:40:16;93.63;;;54.30;;
55003;SDS011;40900;52.710;6.438;2022-11-14T04:42:41;91.72;;;53.38;;
55003;SDS011;40900;52.710;6.438;2022-11-14T04:45:07;97.28;;;53.47;;
55003;SDS011;40900;52.710;6.438;2022-11-14T04:47:33;96.88;;;54.28;;
55003;SDS011;40900;52.710;6.438;2022-11-14T04:49:59;94.43;;;53.42;;
55003;SDS011;40900;52.710;6.438;2022-11-14T04:52:25;95.65;;;53.75;;
55003;SDS011;40900;52.710;6.438;2022-11-14T04:54:50;91.78;;;53.10;;
55003;SDS011;40900;52.710;6.438;2022-11-14T04:57:16;90.80;;;52.78;;
55003;SDS011;40900;52.710;6.438;2022-11-14T04:59:42;89.97;;;53.03;;
55003;SDS011;40900;52.710;6.438;2022-11-14T05:02:08;95.82;;;53.50;;
55003;SDS011;40900;52.710;6.438;2022-11-14T05:04:33;90.43;;;52.15;;
55003;SDS011;40900;52.710;6.438;2022-11-14T05:06:59;95.70;;;54.70;;
55003;SDS011;40900;52.710;6.438;2022-11-14T05:09:25;92.07;;;52.05;;
55003;SDS011;40900;52.710;6.438;2022-11-14T05:11:50;98.20;;;57.15;;
55003;SDS011;40900;52.710;6.438;2022-11-14T05:14:16;95.45;;;53.90;;
55003;SDS011;40900;52.710;6.438;2022-11-14T05:16:42;98.18;;;55.35;;
55003;SDS011;40900;52.710;6.438;2022-11-14T05:19:07;95.78;;;54.33;;
55003;SDS011;40900;52.710;6.438;2022-11-14T05:21:33;96.13;;;54.70;;
55003;SDS011;40900;52.710;6.438;2022-11-14T05:23:59;94.22;;;54.28;;
55003;SDS011;40900;52.710;6.438;2022-11-14T05:26:25;91.40;;;52.40;;
55003;SDS011;40900;52.710;6.438;2022-11-14T05:28:50;98.10;;;55.70;;
55003;SDS011;40900;52.710;6.438;2022-11-14T05:31:16;98.97;;;54.47;;
55003;SDS011;40900;52.710;6.438;2022-11-14T05:33:42;97.22;;;54.08;;
55003;SDS011;40900;52.710;6.438;2022-11-14T05:36:10;95.18;;;54.08;;
55003;SDS011;40900;52.710;6.438;2022-11-14T05:38:40;93.95;;;54.97;;
55003;SDS011;40900;52.710;6.438;2022-11-14T05:41:07;90.57;;;52.00;;
55003;SDS011;40900;52.710;6.438;2022-11-14T05:43:35;92.97;;;54.00;;
55003;SDS011;40900;52.710;6.438;2022-11-14T05:46:02;94.40;;;54.65;;
55003;SDS011;40900;52.710;6.438;2022-11-14T05:48:30;95.45;;;54.25;;
55003;SDS011;40900;52.710;6.438;2022-11-14T05:50:56;97.50;;;55.33;;
55003;SDS011;40900;52.710;6.438;2022-11-14T05:53:23;94.32;;;56.53;;
55003;SDS011;40900;52.710;6.438;2022-11-14T05:55:50;98.47;;;57.40;;
55003;SDS011;40900;52.710;6.438;2022-11-14T05:58:16;94.53;;;54.40;;
55003;SDS011;40900;52.710;6.438;2022-11-14T06:00:41;92.97;;;53.67;;
55003;SDS011;40900;52.710;6.438;2022-11-14T06:03:07;96.35;;;55.03;;
55003;SDS011;40900;52.710;6.438;2022-11-14T06:05:33;97.53;;;56.75;;
55003;SDS011;40900;52.710;6.438;2022-11-14T06:08:00;91.15;;;54.38;;
55003;SDS011;40900;52.710;6.438;2022-11-14T06:10:26;99.70;;;57.47;;
55003;SDS011;40900;52.710;6.438;2022-11-14T06:12:52;100.50;;;58.40;;
55003;SDS011;40900;52.710;6.438;2022-11-14T06:15:18;98.03;;;54.63;;
55003;SDS011;40900;52.710;6.438;2022-11-14T06:17:44;104.18;;;57.40;;
55003;SDS011;40900;52.710;6.438;2022-11-14T06:20:10;105.80;;;59.33;;
55003;SDS011;40900;52.710;6.438;2022-11-14T06:22:39;105.57;;;58.05;;
55003;SDS011;40900;52.710;6.438;2022-11-14T06:25:06;102.05;;;58.20;;
55003;SDS011;40900;52.710;6.438;2022-11-14T06:27:32;102.95;;;56.97;;
55003;SDS011;40900;52.710;6.438;2022-11-14T06:29:57;103.85;;;56.60;;
55003;SDS011;40900;52.710;6.438;2022-11-14T06:32:23;98.35;;;55.85;;
55003;SDS011;40900;52.710;6.438;2022-11-14T06:34:49;96.60;;;53.90;;
55003;SDS011;40900;52.710;6.438;2022-11-14T06:37:14;92.75;;;55.13;;
55003;SDS011;40900;52.710;6.438;2022-11-14T06:39:40;95.88;;;53.67;;
55003;SDS011;40900;52.710;6.438;2022-11-14T06:42:06;94.25;;;55.47;;
55003;SDS011;40900;52.710;6.438;2022-11-14T06:44:31;101.15;;;54.70;;
55003;SDS011;40900;52.710;6.438;2022-11-14T06:46:57;100.78;;;53.78;;
55003;SDS011;40900;52.710;6.438;2022-11-14T06:49:23;96.82;;;53.72;;
55003;SDS011;40900;52.710;6.438;2022-11-14T06:51:52;103.47;;;55.13;;
55003;SDS011;40900;52.710;6.438;2022-11-14T06:54:18;103.78;;;54.88;;
55003;SDS011;40900;52.710;6.438;2022-11-14T06:56:44;94.68;;;52.17;;
55003;SDS011;40900;52.710;6.438;2022-11-14T06:59:09;100.43;;;53.25;;
55003;SDS011;40900;52.710;6.438;2022-11-14T07:01:35;91.60;;;51.72;;
55003;SDS011;40900;52.710;6.438;2022-11-14T07:04:01;99.68;;;52.78;;
55003;SDS011;40900;52.710;6.438;2022-11-14T07:06:28;88.53;;;50.10;;
55003;SDS011;40900;52.710;6.438;2022-11-14T07:08:55;95.53;;;52.78;;
55003;SDS011;40900;52.710;6.438;2022-11-14T07:11:22;89.07;;;50.13;;
55003;SDS011;40900;52.710;6.438;2022-11-14T07:13:52;85.32;;;49.78;;
55003;SDS011;40900;52.710;6.438;2022-11-14T07:16:22;86.95;;;49.40;;
55003;SDS011;40900;52.710;6.438;2022-11-14T07:18:48;86.15;;;49.00;;
55003;SDS011;40900;52.710;6.438;2022-11-14T07:21:14;86.93;;;48.78;;
55003;SDS011;40900;52.710;6.438;2022-11-14T07:23:40;82.38;;;46.55;;
55003;SDS011;40900;52.710;6.438;2022-11-14T07:26:06;89.22;;;49.22;;
55003;SDS011;40900;52.710;6.438;2022-11-14T07:28:34;90.18;;;49.72;;
55003;SDS011;40900;52.710;6.438;2022-11-14T07:31:04;85.28;;;48.17;;
55003;SDS011;40900;52.710;6.438;2022-11-14T07:33:31;88.57;;;49.08;;
55003;SDS011;40900;52.710;6.438;2022-11-14T07:35:57;92.75;;;50.22;;
55003;SDS011;40900;52.710;6.438;2022-11-14T07:38:23;85.13;;;48.63;;
55003;SDS011;40900;52.710;6.438;2022-11-14T07:40:55;84.80;;;47.83;;
55003;SDS011;40900;52.710;6.438;2022-11-14T07:43:22;81.68;;;47.47;;
55003;SDS011;40900;52.710;6.438;2022-11-14T07:45:48;89.85;;;49.85;;
55003;SDS011;40900;52.710;6.438;2022-11-14T07:48:15;86.32;;;47.65;;
55003;SDS011;40900;52.710;6.438;2022-11-14T07:50:40;89.30;;;49.83;;
55003;SDS011;40900;52.710;6.438;2022-11-14T07:53:06;87.00;;;47.03;;
55003;SDS011;40900;52.710;6.438;2022-11-14T07:55:36;87.25;;;47.47;;
55003;SDS011;40900;52.710;6.438;2022-11-14T07:58:02;87.70;;;47.85;;
55003;SDS011;40900;52.710;6.438;2022-11-14T08:00:28;85.35;;;47.83;;
55003;SDS011;40900;52.710;6.438;2022-11-14T08:02:54;83.82;;;46.97;;
55003;SDS011;40900;52.710;6.438;2022-11-14T08:05:20;81.93;;;47.30;;
55003;SDS011;40900;52.710;6.438;2022-11-14T08:07:46;81.95;;;47.03;;
55003;SDS011;40900;52.710;6.438;2022-11-14T08:10:14;81.10;;;46.17;;
55003;SDS011;40900;52.710;6.438;2022-11-14T08:12:41;81.25;;;47.17;;
55003;SDS011;40900;52.710;6.438;2022-11-14T08:15:08;83.40;;;47.60;;
55003;SDS011;40900;52.710;6.438;2022-11-14T08:17:35;89.68;;;48.53;;
55003;SDS011;40900;52.710;6.438;2022-11-14T08:20:02;85.07;;;48.15;;
55003;SDS011;40900;52.710;6.438;2022-11-14T08:22:28;78.90;;;46.90;;
55003;SDS011;40900;52.710;6.438;2022-11-14T08:24:55;84.88;;;48.13;;
55003;SDS011;40900;52.710;6.438;2022-11-14T08:27:21;79.30;;;47.22;;
55003;SDS011;40900;52.710;6.438;2022-11-14T08:29:48;81.80;;;45.65;;
55003;SDS011;40900;52.710;6.438;2022-11-14T08:32:15;84.30;;;48.42;;
55003;SDS011;40900;52.710;6.438;2022-11-14T08:34:44;82.93;;;48.42;;
55003;SDS011;40900;52.710;6.438;2022-11-14T08:37:10;85.47;;;48.00;;
55003;SDS011;40900;52.710;6.438;2022-11-14T08:39:35;79.03;;;46.25;;
55003;SDS011;40900;52.710;6.438;2022-11-14T08:42:01;80.32;;;45.38;;
55003;SDS011;40900;52.710;6.438;2022-11-14T08:44:27;78.88;;;47.30;;
55003;SDS011;40900;52.710;6.438;2022-11-14T08:46:52;71.32;;;43.97;;
55003;SDS011;40900;52.710;6.438;2022-11-14T08:49:18;76.88;;;45.30;;
55003;SDS011;40900;52.710;6.438;2022-11-14T08:51:44;74.93;;;45.25;;
55003;SDS011;40900;52.710;6.438;2022-11-14T08:54:09;69.88;;;42.33;;
55003;SDS011;40900;52.710;6.438;2022-11-14T08:56:35;70.75;;;43.83;;
55003;SDS011;40900;52.710;6.438;2022-11-14T08:59:04;66.57;;;42.33;;
55003;SDS011;40900;52.710;6.438;2022-11-14T09:01:30;63.65;;;41.42;;
55003;SDS011;40900;52.710;6.438;2022-11-14T09:03:58;66.07;;;41.70;;
55003;SDS011;40900;52.710;6.438;2022-11-14T09:06:24;60.58;;;39.53;;
55003;SDS011;40900;52.710;6.438;2022-11-14T09:08:50;62.65;;;40.38;;
55003;SDS011;40900;52.710;6.438;2022-11-14T09:11:16;60.80;;;40.35;;
55003;SDS011;40900;52.710;6.438;2022-11-14T09:13:42;58.38;;;39.47;;
55003;SDS011;40900;52.710;6.438;2022-11-14T09:16:07;54.30;;;38.75;;
55003;SDS011;40900;52.710;6.438;2022-11-14T09:18:33;54.90;;;37.45;;
55003;SDS011;40900;52.710;6.438;2022-11-14T09:21:00;59.33;;;38.00;;
55003;SDS011;40900;52.710;6.438;2022-11-14T09:23:27;52.90;;;36.63;;
55003;SDS011;40900;52.710;6.438;2022-11-14T09:25:53;51.72;;;36.70;;
55003;SDS011;40900;52.710;6.438;2022-11-14T09:28:20;49.53;;;36.45;;
55003;SDS011;40900;52.710;6.438;2022-11-14T09:30:45;48.38;;;34.42;;
55003;SDS011;40900;52.710;6.438;2022-11-14T09:33:11;49.40;;;36.95;;
55003;SDS011;40900;52.710;6.438;2022-11-14T09:35:36;43.65;;;32.67;;
55003;SDS011;40900;52.710;6.438;2022-11-14T09:38:08;44.50;;;33.67;;
55003;SDS011;40900;52.710;6.438;2022-11-14T09:40:51;43.60;;;32.92;;
55003;SDS011;40900;52.710;6.438;2022-11-14T09:46:03;41.60;;;31.13;;
55003;SDS011;40900;52.710;6.438;2022-11-14T09:48:37;40.03;;;31.27;;
55003;SDS011;40900;52.710;6.438;2022-11-14T09:53:33;43.80;;;30.77;;
55003;SDS011;40900;52.710;6.438;2022-11-14T09:58:50;38.60;;;29.90;;
55003;SDS011;40900;52.710;6.438;2022-11-14T10:02:04;38.67;;;29.58;;
55003;SDS011;40900;52.710;6.438;2022-11-14T10:07:01;38.22;;;29.85;;
55003;SDS011;40900;52.710;6.438;2022-11-14T10:09:49;37.75;;;29.00;;
55003;SDS011;40900;52.710;6.438;2022-11-14T10:12:38;40.90;;;30.35;;
55003;SDS011;40900;52.710;6.438;2022-11-14T10:15:14;37.90;;;29.27;;
55003;SDS011;40900;52.710;6.438;2022-11-14T10:25:54;35.92;;;28.48;;
55003;SDS011;40900;52.710;6.438;2022-11-14T10:28:52;39.33;;;28.08;;
55003;SDS011;40900;52.710;6.438;2022-11-14T10:34:12;37.00;;;28.75;;
55003;SDS011;40900;52.710;6.438;2022-11-14T10:36:52;39.83;;;31.20;;
55003;SDS011;40900;52.710;6.438;2022-11-14T10:39:44;35.88;;;28.35;;
55003;SDS011;40900;52.710;6.438;2022-11-14T10:44:57;35.47;;;27.38;;
55003;SDS011;40900;52.710;6.438;2022-11-14T10:47:29;36.47;;;28.30;;
55003;SDS011;40900;52.710;6.438;2022-11-14T10:50:24;31.10;;;25.52;;
55003;SDS011;40900;52.710;6.438;2022-11-14T10:52:55;31.83;;;25.83;;
55003;SDS011;40900;52.710;6.438;2022-11-14T10:55:25;35.60;;;27.83;;
55003;SDS011;40900;52.710;6.438;2022-11-14T10:57:50;31.80;;;25.17;;
55003;SDS011;40900;52.710;6.438;2022-11-14T11:00:21;33.22;;;26.55;;
55003;SDS011;40900;52.710;6.438;2022-11-14T11:02:48;35.45;;;28.48;;
55003;SDS011;40900;52.710;6.438;2022-11-14T11:05:19;33.20;;;27.35;;
55003;SDS011;40900;52.710;6.438;2022-11-14T11:07:48;32.00;;;26.40;;
55003;SDS011;40900;52.710;6.438;2022-11-14T11:10:33;33.58;;;27.25;;
55003;SDS011;40900;52.710;6.438;2022-11-14T11:16:18;33.03;;;25.60;;
55003;SDS011;40900;52.710;6.438;2022-11-14T11:18:46;35.83;;;26.73;;
55003;SDS011;40900;52.710;6.438;2022-11-14T11:21:13;35.33;;;27.45;;
55003;SDS011;40900;52.710;6.438;2022-11-14T11:24:03;32.60;;;26.45;;
55003;SDS011;40900;52.710;6.438;2022-11-14T11:26:28;35.63;;;26.92;;
55003;SDS011;40900;52.710;6.438;2022-11-14T11:29:04;35.97;;;26.73;;
55003;SDS011;40900;52.710;6.438;2022-11-14T11:31:54;37.95;;;27.80;;
55003;SDS011;40900;52.710;6.438;2022-11-14T11:34:26;36.05;;;26.70;;
55003;SDS011;40900;52.710;6.438;2022-11-14T11:37:13;38.80;;;28.73;;
55003;SDS011;40900;52.710;6.438;2022-11-14T11:39:50;38.83;;;27.70;;
55003;SDS011;40900;52.710;6.438;2022-11-14T11:42:21;39.58;;;28.52;;
55003;SDS011;40900;52.710;6.438;2022-11-14T11:44:49;36.22;;;27.38;;
55003;SDS011;40900;52.710;6.438;2022-11-14T11:47:19;36.63;;;26.23;;
55003;SDS011;40900;52.710;6.438;2022-11-14T11:49:49;34.35;;;26.55;;
55003;SDS011;40900;52.710;6.438;2022-11-14T11:52:17;38.65;;;27.67;;
55003;SDS011;40900;52.710;6.438;2022-11-14T11:57:22;34.00;;;26.15;;
55003;SDS011;40900;52.710;6.438;2022-11-14T11:59:54;37.47;;;26.30;;
55003;SDS011;40900;52.710;6.438;2022-11-14T12:02:29;33.78;;;25.33;;
55003;SDS011;40900;52.710;6.438;2022-11-14T12:04:55;34.30;;;25.27;;
55003;SDS011;40900;52.710;6.438;2022-11-14T12:07:35;36.10;;;26.05;;
55003;SDS011;40900;52.710;6.438;2022-11-14T12:10:10;34.13;;;24.58;;
55003;SDS011;40900;52.710;6.438;2022-11-14T12:12:50;33.08;;;24.70;;
55003;SDS011;40900;52.710;6.438;2022-11-14T12:29:03;31.45;;;22.85;;
55003;SDS011;40900;52.710;6.438;2022-11-14T12:31:37;31.85;;;23.48;;
55003;SDS011;40900;52.710;6.438;2022-11-14T12:34:13;29.60;;;23.88;;
55003;SDS011;40900;52.710;6.438;2022-11-14T12:36:48;30.50;;;23.02;;
55003;SDS011;40900;52.710;6.438;2022-11-14T12:42:07;27.67;;;20.95;;
55003;SDS011;40900;52.710;6.438;2022-11-14T12:44:38;30.30;;;21.77;;
55003;SDS011;40900;52.710;6.438;2022-11-14T12:57:52;26.67;;;20.80;;
55003;SDS011;40900;52.710;6.438;2022-11-14T13:05:56;28.20;;;20.77;;
55003;SDS011;40900;52.710;6.438;2022-11-14T13:14:14;27.95;;;21.15;;
55003;SDS011;40900;52.710;6.438;2022-11-14T13:17:42;29.20;;;21.33;;
55003;SDS011;40900;52.710;6.438;2022-11-14T13:33:44;28.90;;;21.92;;
55003;SDS011;40900;52.710;6.438;2022-11-14T13:41:58;27.17;;;21.15;;
55003;SDS011;40900;52.710;6.438;2022-11-14T13:52:39;23.58;;;19.25;;
55003;SDS011;40900;52.710;6.438;2022-11-14T13:55:17;23.42;;;18.90;;
55003;SDS011;40900;52.710;6.438;2022-11-14T13:57:58;25.67;;;19.05;;
55003;SDS011;40900;52.710;6.438;2022-11-14T14:03:37;23.80;;;18.13;;
55003;SDS011;40900;52.710;6.438;2022-11-14T14:09:20;23.50;;;18.83;;
55003;SDS011;40900;52.710;6.438;2022-11-14T14:15:07;21.65;;;18.40;;
55003;SDS011;40900;52.710;6.438;2022-11-14T14:23:29;25.17;;;19.05;;
55003;SDS011;40900;52.710;6.438;2022-11-14T14:29:10;27.45;;;19.83;;
55003;SDS011;40900;52.710;6.438;2022-11-14T14:31:52;23.40;;;18.33;;
55003;SDS011;40900;52.710;6.438;2022-11-14T14:34:30;24.75;;;19.10;;
55003;SDS011;40900;52.710;6.438;2022-11-14T14:36:56;26.73;;;19.45;;
55003;SDS011;40900;52.710;6.438;2022-11-14T14:39:23;21.98;;;18.17;;
55003;SDS011;40900;52.710;6.438;2022-11-14T14:41:51;21.25;;;17.45;;
55003;SDS011;40900;52.710;6.438;2022-11-14T14:44:20;23.95;;;18.23;;
55003;SDS011;40900;52.710;6.438;2022-11-14T14:47:15;23.05;;;17.70;;
55003;SDS011;40900;52.710;6.438;2022-11-14T14:49:41;23.30;;;16.63;;
55003;SDS011;40900;52.710;6.438;2022-11-14T14:54:57;17.65;;;13.75;;
55003;SDS011;40900;52.710;6.438;2022-11-14T14:57:26;16.85;;;13.18;;
55003;SDS011;40900;52.710;6.438;2022-11-14T15:02:27;16.47;;;12.47;;
55003;SDS011;40900;52.710;6.438;2022-11-14T15:04:54;17.17;;;12.65;;
55003;SDS011;40900;52.710;6.438;2022-11-14T15:07:23;15.68;;;12.52;;
55003;SDS011;40900;52.710;6.438;2022-11-14T15:09:55;15.65;;;12.05;;
55003;SDS011;40900;52.710;6.438;2022-11-14T15:12:23;17.13;;;12.68;;
55003;SDS011;40900;52.710;6.438;2022-11-14T15:14:54;15.43;;;12.07;;
55003;SDS011;40900;52.710;6.438;2022-11-14T15:17:21;16.42;;;12.70;;
55003;SDS011;40900;52.710;6.438;2022-11-14T15:19:49;17.13;;;12.13;;
55003;SDS011;40900;52.710;6.438;2022-11-14T15:24:42;14.55;;;11.70;;
55003;SDS011;40900;52.710;6.438;2022-11-14T15:27:12;14.02;;;11.82;;
55003;SDS011;40900;52.710;6.438;2022-11-14T15:29:46;17.33;;;11.85;;
55003;SDS011;40900;52.710;6.438;2022-11-14T15:32:18;14.20;;;11.52;;
55003;SDS011;40900;52.710;6.438;2022-11-14T15:35:07;14.80;;;11.63;;
55003;SDS011;40900;52.710;6.438;2022-11-14T15:37:58;15.82;;;12.55;;
55003;SDS011;40900;52.710;6.438;2022-11-14T15:40:38;16.58;;;13.15;;
55003;SDS011;40900;52.710;6.438;2022-11-14T15:46:02;19.27;;;14.88;;
55003;SDS011;40900;52.710;6.438;2022-11-14T15:48:29;17.98;;;12.40;;
55003;SDS011;40900;52.710;6.438;2022-11-14T15:50:55;16.38;;;13.30;;
55003;SDS011;40900;52.710;6.438;2022-11-14T15:53:21;16.55;;;13.93;;
55003;SDS011;40900;52.710;6.438;2022-11-14T15:55:49;19.60;;;15.48;;
55003;SDS011;40900;52.710;6.438;2022-11-14T15:58:15;17.70;;;14.82;;
55003;SDS011;40900;52.710;6.438;2022-11-14T16:00:45;16.67;;;13.85;;
55003;SDS011;40900;52.710;6.438;2022-11-14T16:03:14;18.92;;;15.13;;
55003;SDS011;40900;52.710;6.438;2022-11-14T16:05:43;21.45;;;15.60;;
55003;SDS011;40900;52.710;6.438;2022-11-14T16:08:10;18.52;;;14.40;;
55003;SDS011;40900;52.710;6.438;2022-11-14T16:10:37;19.63;;;15.23;;
55003;SDS011;40900;52.710;6.438;2022-11-14T16:13:03;20.80;;;15.95;;
55003;SDS011;40900;52.710;6.438;2022-11-14T16:15:29;25.55;;;16.20;;
55003;SDS011;40900;52.710;6.438;2022-11-14T16:17:54;19.20;;;15.68;;
55003;SDS011;40900;52.710;6.438;2022-11-14T16:20:21;20.73;;;16.17;;
55003;SDS011;40900;52.710;6.438;2022-11-14T16:22:49;19.13;;;15.20;;
55003;SDS011;40900;52.710;6.438;2022-11-14T16:25:21;20.27;;;16.08;;
55003;SDS011;40900;52.710;6.438;2022-11-14T16:27:48;20.92;;;16.50;;
55003;SDS011;40900;52.710;6.438;2022-11-14T16:30:15;21.92;;;16.55;;
55003;SDS011;40900;52.710;6.438;2022-11-14T16:32:43;20.50;;;15.68;;
55003;SDS011;40900;52.710;6.438;2022-11-14T16:35:15;19.83;;;15.88;;
55003;SDS011;40900;52.710;6.438;2022-11-14T16:37:42;20.02;;;15.90;;
55003;SDS011;40900;52.710;6.438;2022-11-14T16:42:41;25.08;;;16.80;;
55003;SDS011;40900;52.710;6.438;2022-11-14T16:45:07;21.58;;;17.52;;